Time;durP1;ratioP1;P1;durP2;ratioP2;P2;SDS_P1;SDS_P2;PMS_P1;PMS_P2;Temp;Humidity;BMP_temperature;BMP_pressure;BME280_temperature;BME280_humidity;BME280_pressure;Samples;Min_cycle;Max_cycle;Signal;HPM_P1;HPM_P2
2023/06/25 00:01:11;;;;;;;14.23;6.88;;;;;;;-143.21;95.42;71602.25;5110365;28;20562;-81
2023/06/25 00:03:38;;;;;;;16.83;7.55;;;;;;;-143.21;95.85;71612.16;5109033;28;20630;-81
2023/06/25 00:06:05;;;;;;;9.20;6.30;;;;;;;-143.21;96.63;71616.13;5107624;28;20207;-80
2023/06/25 00:08:32;;;;;;;11.25;7.03;;;;;;;-143.21;96.73;71616.13;5107743;28;20202;-78
2023/06/25 00:10:59;;;;;;;12.48;7.00;;;;;;;-143.21;96.62;71616.13;5107631;28;20199;-80
2023/06/25 00:13:25;;;;;;;15.85;7.53;;;;;;;-143.21;96.69;71610.16;5109315;28;20192;-80
2023/06/25 00:15:53;;;;;;;18.02;7.50;;;;;;;-143.21;97.24;71606.22;5107148;28;20196;-81
2023/06/25 00:18:20;;;;;;;12.40;7.10;;;;;;;-143.21;97.00;71606.22;5109131;28;20291;-79
2023/06/25 00:20:47;;;;;;;11.55;6.95;;;;;;;-143.21;96.59;71604.22;5108618;28;20721;-81
2023/06/25 00:23:14;;;;;;;9.52;6.45;;;;;;;-143.21;96.17;71602.25;5107458;28;20254;-81
2023/06/25 00:25:41;;;;;;;13.52;7.30;;;;;;;-143.21;96.32;71590.34;5108736;28;20222;-81
2023/06/25 00:28:08;;;;;;;10.38;7.10;;;;;;;-143.21;96.66;71586.38;5107649;28;20739;-80
2023/06/25 00:30:35;;;;;;;10.45;6.80;;;;;;;-143.21;97.09;71582.41;5109016;28;20200;-80
2023/06/25 00:33:03;;;;;;;10.73;6.93;;;;;;;-143.21;97.10;71578.44;5108949;28;20203;-79
2023/06/25 00:36:01;;;;;;;12.50;7.03;;;;;;;-143.21;97.00;71578.44;5107085;28;20257;-78
2023/06/25 00:38:28;;;;;;;13.85;7.45;;;;;;;-143.21;97.28;71580.44;5106310;28;20273;-78
2023/06/25 00:40:55;;;;;;;12.80;7.30;;;;;;;-143.21;95.99;71580.44;5106599;28;20644;-78
2023/06/25 00:43:22;;;;;;;11.82;6.80;;;;;;;-143.21;94.83;71572.50;5107246;28;20207;-79
2023/06/25 00:45:49;;;;;;;13.35;7.15;;;;;;;-143.21;94.00;71586.38;5107430;28;20204;-80
2023/06/25 00:48:17;;;;;;;14.02;7.22;;;;;;;-143.21;95.37;71600.25;5108467;28;20199;-80
2023/06/25 00:50:44;;;;;;;11.88;6.93;;;;;;;-143.21;95.89;71608.19;5111715;28;20601;-80
2023/06/25 00:53:10;;;;;;;11.35;7.15;;;;;;;-143.21;96.64;71624.06;5112886;28;20215;-81
2023/06/25 00:55:38;;;;;;;10.18;6.90;;;;;;;-143.21;97.01;71630.00;5113030;28;20211;-83
2023/06/25 00:58:05;;;;;;;15.15;7.22;;;;;;;-143.21;98.43;71616.13;5113316;28;20257;-82
2023/06/25 01:00:33;;;;;;;11.55;7.07;;;;;;;-143.21;98.80;71631.97;5112887;28;20223;-82
2023/06/25 01:03:07;;;;;;;13.48;6.97;;;;;;;-143.21;98.39;71624.06;5113214;28;20203;-83
2023/06/25 01:05:43;;;;;;;11.88;6.75;;;;;;;-143.21;98.64;71626.03;5113269;28;20195;-83
2023/06/25 01:08:12;;;;;;;13.10;7.07;;;;;;;-143.21;98.30;71641.91;5113102;28;20184;-82
2023/06/25 01:10:39;;;;;;;15.75;6.85;;;;;;;-143.21;97.62;71643.88;5112921;28;20200;-82
2023/06/25 01:13:07;;;;;;;12.60;6.93;;;;;;;-143.21;97.30;71655.78;5112751;28;20655;-82
2023/06/25 01:15:34;;;;;;;10.57;6.72;;;;;;;-143.21;97.60;71669.66;5112418;28;20204;-82
2023/06/25 01:18:00;;;;;;;11.88;7.30;;;;;;;-143.21;99.15;71693.44;5112511;28;20196;-82
2023/06/25 01:20:27;;;;;;;15.10;7.22;;;;;;;-143.21;100.00;71705.34;5111592;28;20220;-81
2023/06/25 01:22:56;;;;;;;14.35;8.13;;;;;;;-143.21;100.00;71709.31;5109072;28;20214;-81
2023/06/25 01:25:23;;;;;;;15.60;7.20;;;;;;;-143.21;100.00;71711.28;5111722;28;20199;-81
2023/06/25 01:27:50;;;;;;;18.42;8.55;;;;;;;-143.21;100.00;71705.34;5112637;28;20196;-82
2023/06/25 01:30:20;;;;;;;17.50;8.27;;;;;;;-143.21;100.00;71697.41;5112268;28;20694;-82
2023/06/25 01:32:47;;;;;;;20.45;9.05;;;;;;;-143.21;100.00;71691.47;5112040;28;20531;-81
2023/06/25 01:35:15;;;;;;;17.67;8.35;;;;;;;-143.21;100.00;71693.44;5108819;28;20196;-81
2023/06/25 01:37:42;;;;;;;12.88;7.20;;;;;;;-143.21;100.00;71691.47;5112782;28;20203;-81
2023/06/25 01:40:12;;;;;;;16.73;7.53;;;;;;;-143.21;100.00;71693.44;5112479;28;20211;-81
2023/06/25 01:42:39;;;;;;;15.05;6.72;;;;;;;-143.21;100.00;71705.34;5112514;28;20735;-82
2023/06/25 01:45:07;;;;;;;21.98;7.68;;;;;;;-143.21;100.00;71703.34;5112023;28;20207;-81
2023/06/25 01:47:34;;;;;;;15.38;8.05;;;;;;;-143.21;100.00;71705.34;5111089;28;20192;-81
2023/06/25 01:50:00;;;;;;;16.10;7.88;;;;;;;-143.21;100.00;71717.25;5111937;28;20200;-81
2023/06/25 01:52:27;;;;;;;12.10;7.20;;;;;;;-143.21;100.00;71733.09;5111620;28;20195;-81
2023/06/25 01:54:54;;;;;;;17.95;7.00;;;;;;;-143.21;100.00;71750.94;5111718;28;20203;-81
2023/06/25 01:57:22;;;;;;;13.60;6.72;;;;;;;-143.21;100.00;71754.91;5110366;28;20196;-79
2023/06/25 01:59:49;;;;;;;14.30;7.05;;;;;;;-143.21;100.00;71752.94;5110736;28;20222;-79
2023/06/25 02:02:16;;;;;;;13.43;7.40;;;;;;;-143.21;100.00;71760.88;5110374;27;20192;-79
2023/06/25 02:04:43;;;;;;;15.43;7.90;;;;;;;-143.21;100.00;71756.91;5110358;28;20211;-78
2023/06/25 02:07:09;;;;;;;21.48;9.82;;;;;;;-143.21;100.00;71756.91;5109966;28;20199;-78
2023/06/25 02:09:36;;;;;;;25.58;10.80;;;;;;;-143.21;100.00;71748.97;5110435;28;20203;-78
2023/06/25 02:12:04;;;;;;;20.23;11.57;;;;;;;-143.21;100.00;71741.03;5110341;28;20200;-78
2023/06/25 02:14:32;;;;;;;18.90;11.65;;;;;;;-143.21;100.00;71733.09;5109902;28;20203;-78
2023/06/25 02:16:59;;;;;;;18.52;10.25;;;;;;;-143.21;100.00;71754.91;5110137;28;20665;-79
2023/06/25 02:19:26;;;;;;;18.95;10.38;;;;;;;-143.21;100.00;71762.84;5109561;28;20746;-78
2023/06/25 02:21:53;;;;;;;16.02;8.82;;;;;;;-143.21;100.00;71766.81;5109607;28;20706;-79
2023/06/25 02:24:19;;;;;;;16.02;8.75;;;;;;;-143.21;100.00;71780.69;5109789;28;20192;-79
2023/06/25 02:26:46;;;;;;;17.40;9.70;;;;;;;-143.21;100.00;71784.66;5109275;28;20724;-79
2023/06/25 02:29:13;;;;;;;19.02;9.73;;;;;;;-143.21;100.00;71792.59;5109449;28;20206;-78
2023/06/25 02:31:41;;;;;;;17.05;10.55;;;;;;;-143.21;100.00;71782.69;5109993;28;20196;-78
2023/06/25 02:34:08;;;;;;;20.50;9.40;;;;;;;-143.21;100.00;71780.69;5109207;28;20200;-78
2023/06/25 02:36:35;;;;;;;21.00;10.13;;;;;;;-143.21;100.00;71782.69;5107891;28;20208;-78
2023/06/25 02:39:01;;;;;;;21.05;9.85;;;;;;;-143.21;100.00;71792.59;5109173;28;20203;-79
2023/06/25 02:41:28;;;;;;;19.42;10.75;;;;;;;-143.21;100.00;71812.41;5110035;28;20223;-78
2023/06/25 02:43:55;;;;;;;17.38;10.23;;;;;;;-143.21;100.00;71808.44;5109916;28;20196;-78
2023/06/25 02:46:22;;;;;;;17.75;9.90;;;;;;;-143.21;100.00;71812.41;5109461;28;20199;-78
2023/06/25 02:48:50;;;;;;;21.17;10.40;;;;;;;-143.21;100.00;71812.41;5109349;28;20268;-78
2023/06/25 02:51:17;;;;;;;18.13;8.98;;;;;;;-143.21;100.00;71804.47;5109176;28;20616;-78
2023/06/25 02:53:43;;;;;;;13.60;8.80;;;;;;;-143.21;100.00;71792.59;5109715;28;20257;-78
2023/06/25 02:56:10;;;;;;;21.90;9.68;;;;;;;-143.21;100.00;71778.72;5109157;28;21084;-78
2023/06/25 02:58:37;;;;;;;15.88;9.60;;;;;;;-143.21;100.00;71778.72;5108602;28;20200;-79
2023/06/25 03:01:04;;;;;;;17.90;9.35;;;;;;;-143.21;100.00;71772.75;5108884;28;20726;-79
2023/06/25 03:03:30;;;;;;;19.80;9.57;;;;;;;-143.21;100.00;71788.63;5109080;28;20637;-79
2023/06/25 03:05:59;;;;;;;15.30;9.00;;;;;;;-143.21;100.00;71790.59;5109582;28;20676;-79
2023/06/25 03:08:25;;;;;;;24.20;9.70;;;;;;;-143.21;100.00;71810.44;5109185;28;20200;-79
2023/06/25 03:10:52;;;;;;;16.33;9.70;;;;;;;-143.21;100.00;71816.38;5108287;28;20284;-78
2023/06/25 03:13:19;;;;;;;19.42;10.60;;;;;;;-143.21;100.00;71816.38;5108725;28;20195;-78
2023/06/25 03:15:46;;;;;;;16.27;9.82;;;;;;;-143.21;100.00;71802.50;5105723;28;20200;-78
2023/06/25 03:18:12;;;;;;;17.83;9.80;;;;;;;-143.21;100.00;71796.56;5109434;28;20196;-78
2023/06/25 03:20:39;;;;;;;19.80;10.65;;;;;;;-143.21;100.00;71786.63;5108436;28;20309;-80
2023/06/25 03:23:07;;;;;;;20.95;11.07;;;;;;;-143.21;100.00;71776.72;5108818;28;20204;-79
2023/06/25 03:25:34;;;;;;;16.80;10.18;;;;;;;-143.21;100.00;71768.78;5107943;28;20204;-78
2023/06/25 03:28:01;;;;;;;18.15;10.10;;;;;;;-143.21;100.00;71752.94;5108342;28;20196;-78
2023/06/25 03:30:27;;;;;;;21.75;10.40;;;;;;;-143.21;100.00;71739.06;5108370;28;20196;-78
2023/06/25 03:32:54;;;;;;;20.17;10.57;;;;;;;-143.21;100.00;71725.16;5106493;28;20662;-78
2023/06/25 03:35:21;;;;;;;18.02;10.63;;;;;;;-143.21;100.00;71727.16;5108013;28;20203;-77
2023/06/25 03:37:48;;;;;;;19.05;11.27;;;;;;;-143.21;100.00;71733.09;5108572;28;20561;-78
2023/06/25 03:40:16;;;;;;;18.50;10.27;;;;;;;-143.21;100.00;71729.13;5106038;28;20260;-78
2023/06/25 03:42:43;;;;;;;15.43;10.52;;;;;;;-143.21;100.00;71729.13;5108515;28;20200;-78
2023/06/25 03:45:10;;;;;;;19.65;10.80;;;;;;;-143.21;100.00;71727.16;5107548;28;20192;-77
2023/06/25 03:47:37;;;;;;;23.80;11.77;;;;;;;-143.21;100.00;71725.16;5108377;28;20204;-77
2023/06/25 03:50:05;;;;;;;19.92;11.82;;;;;;;-143.21;100.00;71713.28;5107466;28;20188;-76
2023/06/25 03:52:31;;;;;;;22.50;11.30;;;;;;;-143.21;100.00;71701.38;5107130;28;20731;-76
2023/06/25 03:54:58;;;;;;;25.25;11.15;;;;;;;-143.21;100.00;71697.41;5107989;28;20192;-77
2023/06/25 03:57:26;;;;;;;18.02;11.98;;;;;;;-143.21;100.00;71691.47;5107994;28;20196;-79
2023/06/25 03:59:53;;;;;;;19.50;11.73;;;;;;;-143.21;100.00;71681.56;5108386;28;20192;-80
2023/06/25 04:02:20;;;;;;;15.23;10.25;;;;;;;-143.21;100.00;71673.63;5108290;28;20632;-80
2023/06/25 04:04:47;;;;;;;21.52;11.15;;;;;;;-143.21;100.00;71669.66;5107493;28;20200;-79
2023/06/25 04:07:13;;;;;;;21.30;10.85;;;;;;;-143.21;100.00;71657.75;5108642;28;20203;-79
2023/06/25 04:09:40;;;;;;;18.10;11.05;;;;;;;-143.21;100.00;71643.88;5108312;28;20201;-78
2023/06/25 04:12:08;;;;;;;19.10;10.57;;;;;;;-143.21;100.00;71630.00;5107656;28;20196;-79
2023/06/25 04:14:37;;;;;;;18.25;10.65;;;;;;;-143.21;100.00;71622.06;5107241;28;20204;-78
2023/06/25 04:17:04;;;;;;;18.63;11.27;;;;;;;-143.21;100.00;71610.16;5108058;28;20203;-78
2023/06/25 04:19:31;;;;;;;17.60;10.88;;;;;;;-143.21;100.00;71606.22;5107787;28;20196;-78
2023/06/25 04:21:58;;;;;;;20.00;10.80;;;;;;;-143.21;100.00;71618.09;5108294;28;20670;-78
2023/06/25 04:24:24;;;;;;;17.10;10.90;;;;;;;-143.21;100.00;71624.06;5107511;28;20196;-78
2023/06/25 04:26:51;;;;;;;21.73;12.00;;;;;;;-143.21;100.00;71618.09;5107773;28;20642;-78
2023/06/25 04:29:18;;;;;;;22.67;12.10;;;;;;;-143.21;100.00;71620.09;5107862;28;20729;-78
2023/06/25 04:31:46;;;;;;;21.67;11.95;;;;;;;-143.21;100.00;71631.97;5108496;28;20256;-78
2023/06/25 04:34:13;;;;;;;17.15;10.93;;;;;;;-143.21;100.00;71628.00;5108293;28;20192;-77
2023/06/25 04:36:39;;;;;;;18.45;11.10;;;;;;;-143.21;100.00;71626.03;5107864;28;20678;-77
2023/06/25 04:39:07;;;;;;;20.92;12.60;;;;;;;-143.21;100.00;71626.03;5107612;28;20254;-77
2023/06/25 04:41:33;;;;;;;17.17;11.82;;;;;;;-143.21;100.00;71626.03;5107639;28;20223;-78
2023/06/25 04:44:00;;;;;;;19.83;12.15;;;;;;;-143.21;100.00;71628.00;5107484;28;20200;-78
2023/06/25 04:46:27;;;;;;;20.02;11.75;;;;;;;-143.21;100.00;71630.00;5107527;28;20196;-78
2023/06/25 04:48:55;;;;;;;18.23;12.05;;;;;;;-143.21;100.00;71628.00;5107655;28;20196;-79
2023/06/25 04:51:22;;;;;;;20.63;12.38;;;;;;;-143.21;100.00;71628.00;5107609;28;20260;-78
2023/06/25 04:53:48;;;;;;;21.77;11.98;;;;;;;-143.21;100.00;71622.06;5107927;28;20227;-78
2023/06/25 04:56:16;;;;;;;21.92;12.10;;;;;;;-143.21;100.00;71620.09;5105597;28;20192;-79
2023/06/25 04:58:43;;;;;;;19.40;12.50;;;;;;;-143.21;100.00;71616.13;5108509;28;20272;-79
2023/06/25 05:01:09;;;;;;;23.92;12.18;;;;;;;-143.21;100.00;71602.25;5107437;28;20228;-79
2023/06/25 05:03:36;;;;;;;15.68;10.55;;;;;;;-143.21;100.00;71598.28;5107003;28;20204;-79
2023/06/25 05:06:05;;;;;;;19.02;10.65;;;;;;;-143.21;100.00;71592.31;5106591;28;20607;-79
2023/06/25 05:08:32;;;;;;;19.83;11.38;;;;;;;-143.21;100.00;71586.38;5106140;28;20208;-77
2023/06/25 05:10:58;;;;;;;19.42;10.98;;;;;;;-143.21;100.00;71588.38;5107370;28;20689;-78
2023/06/25 05:13:25;;;;;;;20.00;11.15;;;;;;;-143.21;100.00;71586.38;5106508;28;20201;-77
2023/06/25 05:15:52;;;;;;;20.63;10.60;;;;;;;-143.21;100.00;71584.41;5106731;28;20652;-80
2023/06/25 05:18:19;;;;;;;18.55;11.57;;;;;;;-143.21;100.00;71578.44;5106879;28;20199;-78
2023/06/25 05:20:45;;;;;;;17.63;10.25;;;;;;;-143.21;100.00;71570.53;5105750;28;20334;-78
2023/06/25 05:23:14;;;;;;;15.95;10.75;;;;;;;-143.21;100.00;71570.53;5107316;28;20191;-79
2023/06/25 05:25:40;;;;;;;16.83;10.18;;;;;;;-143.21;100.00;71574.47;5107485;28;20208;-79
2023/06/25 05:28:07;;;;;;;16.75;10.07;;;;;;;-143.21;100.00;71560.59;5106742;28;20200;-78
2023/06/25 05:30:34;;;;;;;18.70;10.35;;;;;;;-143.21;100.00;71558.63;5106782;28;20219;-79
2023/06/25 05:33:01;;;;;;;16.00;10.35;;;;;;;-143.21;100.00;71550.69;5107459;28;20272;-80
2023/06/25 05:35:28;;;;;;;16.10;9.75;;;;;;;-143.21;100.00;71554.66;5105643;28;20192;-78
2023/06/25 05:37:56;;;;;;;18.02;10.27;;;;;;;-143.21;100.00;71546.72;5107226;28;20241;-78
2023/06/25 05:40:24;;;;;;;17.23;10.13;;;;;;;-143.21;100.00;71536.81;5110256;28;20230;-78
2023/06/25 05:42:51;;;;;;;15.65;9.23;;;;;;;-143.21;100.00;71532.84;5109657;28;20770;-78
2023/06/25 05:45:18;;;;;;;14.95;9.93;;;;;;;-143.21;100.00;71526.91;5110232;28;20192;-79
2023/06/25 05:47:45;;;;;;;14.80;9.60;;;;;;;-143.21;100.00;71534.81;5111005;28;20203;-79
2023/06/25 05:50:13;;;;;;;16.23;9.90;;;;;;;-143.21;100.00;71528.88;5110819;28;20203;-80
2023/06/25 05:52:43;;;;;;;14.38;9.55;;;;;;;-143.21;100.00;71518.97;5110310;28;20259;-81
2023/06/25 05:55:10;;;;;;;15.80;9.63;;;;;;;-143.21;100.00;71509.06;5110528;28;20199;-79
2023/06/25 05:57:38;;;;;;;16.17;10.25;;;;;;;-143.21;100.00;71497.16;5109867;28;20208;-78
2023/06/25 06:00:06;;;;;;;18.77;12.20;;;;;;;-143.21;100.00;71495.19;5110288;28;20208;-78
2023/06/25 06:02:32;;;;;;;15.88;10.05;;;;;;;-143.21;100.00;71485.25;5109590;28;20701;-79
2023/06/25 06:04:59;;;;;;;12.82;8.60;;;;;;;-143.21;100.00;71465.44;5110006;28;20215;-79
2023/06/25 06:07:26;;;;;;;14.00;8.48;;;;;;;-143.21;99.95;71463.44;5109892;28;20203;-77
2023/06/25 06:09:53;;;;;;;15.90;8.82;;;;;;;-143.21;98.11;71453.53;5109968;28;20200;-77
2023/06/25 06:12:19;;;;;;;15.68;9.10;;;;;;;-143.21;97.94;71459.47;5110305;28;20196;-78
2023/06/25 06:14:48;;;;;;;13.60;9.40;;;;;;;-143.21;98.14;71455.53;5108860;28;20292;-79
2023/06/25 06:17:14;;;;;;;13.60;7.97;;;;;;;-143.21;97.96;71453.53;5110072;28;20200;-78
2023/06/25 06:19:41;;;;;;;10.40;8.00;;;;;;;-143.21;96.37;71451.56;5108504;28;20208;-78
2023/06/25 06:22:08;;;;;;;12.00;8.05;;;;;;;-143.21;96.51;71455.53;5108535;28;21223;-79
2023/06/25 06:24:35;;;;;;;12.98;9.07;;;;;;;-143.21;96.54;71449.56;5109333;28;20211;-78
2023/06/25 06:27:01;;;;;;;12.60;8.10;;;;;;;-143.21;96.46;71443.63;5109288;28;20196;-78
2023/06/25 06:29:28;;;;;;;12.32;8.18;;;;;;;-143.21;95.72;71439.66;5109471;28;20196;-79
2023/06/25 06:31:56;;;;;;;15.48;8.35;;;;;;;-143.21;95.51;71439.66;5108621;28;20195;-85
2023/06/25 06:34:23;;;;;;;11.70;7.95;;;;;;;-143.21;95.11;71431.72;5109626;28;20188;-78
2023/06/25 06:36:53;;;;;;;11.23;7.93;;;;;;;-143.21;95.57;71431.72;5108306;28;20204;-78
2023/06/25 06:39:19;;;;;;;11.60;8.20;;;;;;;-143.21;96.58;71427.75;5107256;28;20192;-78
2023/06/25 06:41:46;;;;;;;13.65;8.70;;;;;;;-143.21;95.62;71417.84;5106046;28;20212;-78
2023/06/25 06:44:14;;;;;;;10.25;7.78;;;;;;;-143.21;93.48;71423.78;5107166;28;20196;-79
2023/06/25 06:46:42;;;;;;;15.90;9.25;;;;;;;-143.21;93.00;71421.81;5107883;28;20673;-80
2023/06/25 06:49:10;;;;;;;13.73;8.60;;;;;;;-143.21;93.71;71425.78;5108248;28;20196;-79
2023/06/25 06:51:38;;;;;;;12.80;8.43;;;;;;;-143.21;93.88;71421.81;5108883;28;20260;-80
2023/06/25 06:54:05;;;;;;;17.00;8.88;;;;;;;-143.21;94.54;71417.84;5108279;28;20269;-77
2023/06/25 06:56:32;;;;;;;17.02;8.68;;;;;;;-143.21;95.47;71407.94;5109584;28;20644;-78
2023/06/25 06:58:59;;;;;;;12.75;8.73;;;;;;;-143.21;95.75;71400.00;5109317;28;20200;-78
2023/06/25 07:01:26;;;;;;;17.52;9.43;;;;;;;-143.21;95.26;71394.06;5109212;28;20709;-81
2023/06/25 07:03:53;;;;;;;15.27;8.95;;;;;;;-143.21;95.33;71390.09;5109088;28;20195;-77
2023/06/25 07:06:21;;;;;;;16.42;9.45;;;;;;;-143.21;94.46;71386.13;5108162;28;20948;-78
2023/06/25 07:08:48;;;;;;;14.80;9.30;;;;;;;-143.21;94.20;71374.22;5108009;28;20614;-79
2023/06/25 07:11:18;;;;;;;13.85;9.45;;;;;;;-143.21;93.39;71374.22;5108353;28;20219;-78
2023/06/25 07:13:45;;;;;;;15.10;9.13;;;;;;;-143.21;93.40;71366.31;5108459;28;20188;-78
2023/06/25 07:16:12;;;;;;;14.80;8.98;;;;;;;-143.21;93.57;71364.31;5108940;28;20196;-79
2023/06/25 07:18:38;;;;;;;13.18;8.77;;;;;;;-143.21;92.91;71360.34;5108554;28;20204;-79
2023/06/25 07:21:06;;;;;;;12.27;8.65;;;;;;;-143.21;93.44;71352.44;5108979;28;21586;-79
2023/06/25 07:23:34;;;;;;;10.73;7.40;;;;;;;-143.21;92.76;71354.41;5107539;28;20196;-77
2023/06/25 07:26:01;;;;;;;10.73;7.55;;;;;;;-143.21;92.29;71352.44;5108441;28;20295;-79
2023/06/25 07:28:28;;;;;;;12.77;8.43;;;;;;;-143.21;90.95;71344.50;5108048;28;20192;-77
2023/06/25 07:30:54;;;;;;;9.57;7.28;;;;;;;-143.21;90.60;71340.53;5107468;28;20272;-77
2023/06/25 07:33:21;;;;;;;8.48;6.80;;;;;;;-143.21;90.01;71334.59;5107137;28;20200;-77
2023/06/25 07:35:48;;;;;;;12.05;7.55;;;;;;;-143.21;88.27;71346.47;5106831;28;20610;-79
2023/06/25 07:38:15;;;;;;;13.32;8.15;;;;;;;-143.21;87.89;71342.50;5107690;28;20192;-79
2023/06/25 07:40:43;;;;;;;14.50;8.75;;;;;;;-143.21;89.01;71336.56;5108243;28;20206;-80
2023/06/25 07:43:10;;;;;;;15.75;8.88;;;;;;;-143.21;89.40;71344.50;5108662;28;20273;-79
2023/06/25 07:45:38;;;;;;;14.25;8.90;;;;;;;-143.21;89.44;71346.47;5108107;28;20356;-79
2023/06/25 07:48:05;;;;;;;10.40;8.88;;;;;;;-143.21;90.14;71346.47;5108168;28;20211;-77
2023/06/25 07:50:32;;;;;;;11.52;8.65;;;;;;;-143.21;89.84;71336.56;5107639;28;20200;-78
2023/06/25 07:52:59;;;;;;;12.88;8.50;;;;;;;-143.21;88.08;71336.56;5107806;28;20196;-78
2023/06/25 07:55:26;;;;;;;10.10;7.38;;;;;;;-143.21;87.17;71328.63;5107549;28;20309;-77
2023/06/25 07:57:54;;;;;;;10.13;7.80;;;;;;;-143.21;86.49;71322.69;5107824;28;20214;-79
2023/06/25 08:00:21;;;;;;;18.48;7.15;;;;;;;-143.21;87.86;71316.75;5107687;28;20204;-79
2023/06/25 08:02:48;;;;;;;9.82;6.60;;;;;;;-143.21;87.41;71306.81;5108410;28;20223;-81
2023/06/25 08:05:15;;;;;;;7.90;6.53;;;;;;;-143.21;87.17;71292.94;5108009;28;20203;-81
2023/06/25 08:07:41;;;;;;;7.53;5.90;;;;;;;-143.21;84.63;71288.97;5108129;28;20196;-78
2023/06/25 08:10:09;;;;;;;9.25;5.45;;;;;;;-143.21;83.79;71283.03;5107426;28;20639;-78
2023/06/25 08:12:36;;;;;;;7.40;6.25;;;;;;;-143.21;85.55;71283.03;5107385;28;20211;-76
2023/06/25 08:15:05;;;;;;;8.88;6.10;;;;;;;-143.21;86.70;71261.22;5108060;27;20662;-82
2023/06/25 08:17:32;;;;;;;5.68;4.95;;;;;;;-143.21;84.07;71253.28;5107679;28;20623;-78
2023/06/25 08:19:58;;;;;;;7.18;5.07;;;;;;;-143.21;82.14;71247.34;5107788;28;20277;-78
2023/06/25 08:22:25;;;;;;;6.47;4.90;;;;;;;-143.21;80.98;71245.38;5107570;28;20216;-79
2023/06/25 08:24:52;;;;;;;7.05;4.60;;;;;;;-143.21;81.39;71233.47;5107889;28;20192;-78
2023/06/25 08:27:19;;;;;;;7.75;4.60;;;;;;;-143.21;81.52;71219.59;5108734;28;20203;-76
2023/06/25 08:29:46;;;;;;;6.32;4.90;;;;;;;-143.21;80.27;71215.63;5110186;28;20197;-77
2023/06/25 08:32:14;;;;;;;7.55;5.43;;;;;;;-143.21;78.73;71205.72;5110896;28;20188;-77
2023/06/25 08:34:42;;;;;;;5.45;4.80;;;;;;;-143.21;78.10;71193.81;5111957;28;20196;-78
2023/06/25 08:37:09;;;;;;;8.30;5.40;;;;;;;-143.21;80.68;71183.91;5111365;28;20214;-80
2023/06/25 08:39:35;;;;;;;6.18;4.25;;;;;;;-143.21;79.26;71183.91;5110966;28;20192;-80
2023/06/25 08:42:02;;;;;;;6.10;3.65;;;;;;;-143.21;77.01;71162.09;5110864;28;20755;-79
2023/06/25 08:44:30;;;;;;;5.57;4.30;;;;;;;-143.21;75.09;71166.06;5110843;28;20196;-78
2023/06/25 08:46:57;;;;;;;4.88;4.20;;;;;;;-143.21;76.09;71150.22;5109671;28;20710;-79
2023/06/25 08:49:30;;;;;;;5.10;4.30;;;;;;;-143.21;74.49;71128.41;5111601;28;20646;-79
2023/06/25 08:52:00;;;;;;;5.32;4.28;;;;;;;-143.21;75.59;71110.56;5111187;28;20188;-79
2023/06/25 08:54:26;;;;;;;4.97;4.22;;;;;;;-143.21;73.04;71094.69;5110558;28;20188;-80
2023/06/25 08:56:53;;;;;;;4.80;3.75;;;;;;;-143.21;71.55;71090.72;5111439;28;20196;-80
2023/06/25 08:59:20;;;;;;;5.47;4.60;;;;;;;-143.21;73.49;71104.59;5110961;28;20192;-78
2023/06/25 09:01:47;;;;;;;7.90;4.50;;;;;;;-143.21;74.09;71102.63;5111540;28;20196;-81
2023/06/25 09:04:14;;;;;;;6.93;4.60;;;;;;;-143.21;73.76;71106.59;5110987;28;20188;-81
2023/06/25 09:06:42;;;;;;;7.03;4.20;;;;;;;-143.21;75.21;71088.75;5110885;28;20204;-81
2023/06/25 09:09:13;;;;;;;7.13;4.68;;;;;;;-143.21;74.34;71078.84;5111018;28;20689;-79
2023/06/25 09:11:41;;;;;;;9.27;4.97;;;;;;;-143.21;74.30;71072.88;5113506;28;20191;-79
2023/06/25 09:14:08;;;;;;;5.60;4.68;;;;;;;-143.21;73.80;71070.91;5114393;28;20224;-80
2023/06/25 09:16:45;;;;;;;5.80;5.03;;;;;;;-143.21;75.27;71068.94;5114560;28;20208;-78
2023/06/25 09:19:22;;;;;;;5.30;4.78;;;;;;;-143.21;73.23;71068.94;5114420;28;20658;-78
2023/06/25 09:21:50;;;;;;;6.43;4.70;;;;;;;-143.21;73.57;71062.97;5114258;28;20231;-78
2023/06/25 09:24:19;;;;;;;5.82;4.78;;;;;;;-143.21;73.86;71049.09;5114602;28;20192;-78
2023/06/25 09:26:47;;;;;;;7.20;5.10;;;;;;;-143.21;71.85;71051.09;5114543;28;20585;-78
2023/06/25 09:29:15;;;;;;;8.93;4.80;;;;;;;-143.21;72.81;71049.09;5114370;28;20659;-80
2023/06/25 09:31:43;;;;;;;5.95;4.78;;;;;;;-143.21;73.12;71037.22;5114323;28;20196;-78
2023/06/25 09:34:10;;;;;;;6.00;4.93;;;;;;;-143.21;73.62;71029.28;5114547;28;20224;-78
2023/06/25 09:36:37;;;;;;;7.30;5.50;;;;;;;-143.21;73.74;71025.31;5114226;28;20611;-81
2023/06/25 09:39:06;;;;;;;6.18;5.00;;;;;;;-143.21;72.54;71009.44;5114500;28;20199;-80
2023/06/25 09:41:35;;;;;;;7.05;5.10;;;;;;;-143.21;72.19;70999.53;5114531;28;20631;-80
2023/06/25 09:44:03;;;;;;;10.27;5.25;;;;;;;-143.21;71.22;70989.63;5114204;28;20326;-83
2023/06/25 09:46:33;;;;;;;6.07;4.68;;;;;;;-143.21;74.67;70987.66;5114630;28;20279;-82
2023/06/25 09:49:01;;;;;;;7.13;4.53;;;;;;;-143.21;70.24;70985.66;5114700;28;20196;-82
2023/06/25 09:51:32;;;;;;;6.22;4.72;;;;;;;-143.21;72.25;70973.78;5114714;28;20199;-82
2023/06/25 09:54:03;;;;;;;5.68;4.70;;;;;;;-143.21;73.15;70959.91;5114406;28;20184;-82
2023/06/25 09:56:34;;;;;;;7.70;4.68;;;;;;;-143.21;70.87;70948.00;5113649;28;20279;-82
2023/06/25 09:59:02;;;;;;;10.45;4.63;;;;;;;-143.21;70.88;70938.09;5113900;28;20192;-82
2023/06/25 10:01:29;;;;;;;8.50;4.78;;;;;;;-143.21;69.31;70946.03;5114216;28;20191;-83
2023/06/25 10:03:56;;;;;;;5.68;4.38;;;;;;;-143.21;67.88;70961.88;5107178;28;20224;-80
2023/06/25 10:06:23;;;;;;;6.65;4.85;;;;;;;-143.21;67.60;70963.84;5113964;28;20631;-79
2023/06/25 10:08:50;;;;;;;6.70;4.55;;;;;;;-143.21;69.03;70967.81;5111840;28;20203;-78
2023/06/25 10:11:17;;;;;;;5.85;4.63;;;;;;;-143.21;67.34;70951.97;5112155;28;20279;-78
2023/06/25 10:13:46;;;;;;;8.43;4.80;;;;;;;-143.21;67.48;70949.97;5112189;28;20199;-78
2023/06/25 10:16:19;;;;;;;7.20;4.88;;;;;;;-143.21;67.92;70948.00;5111655;28;20656;-80
2023/06/25 10:18:47;;;;;;;9.07;4.82;;;;;;;-143.21;67.98;70936.09;5110369;28;20188;-79
2023/06/25 10:21:24;;;;;;;4.88;4.30;;;;;;;-143.21;68.97;70904.38;5111719;28;20235;-79
2023/06/25 10:23:57;;;;;;;5.18;4.32;;;;;;;-143.21;64.81;70896.47;5111212;28;20243;-81
2023/06/25 10:26:29;;;;;;;6.15;4.78;;;;;;;-143.21;64.81;70878.63;5110640;28;20196;-81
2023/06/25 10:29:01;;;;;;;8.73;4.28;;;;;;;-143.21;65.71;70868.72;5112199;28;20386;-79
2023/06/25 10:31:37;;;;;;;5.60;4.85;;;;;;;-143.21;66.03;70848.88;5112066;28;20283;-79
2023/06/25 10:34:06;;;;;;;5.07;4.30;;;;;;;-143.21;65.06;70833.03;5093370;28;20261;-80
2023/06/25 10:36:32;;;;;;;7.20;4.57;;;;;;;-143.21;63.85;70817.16;5107157;28;20207;-80
2023/06/25 10:38:59;;;;;;;5.07;3.90;;;;;;;-143.21;63.95;70805.28;5112852;28;20196;-81
2023/06/25 10:41:28;;;;;;;6.18;3.97;;;;;;;-143.21;63.38;70777.53;5112669;28;20196;-81
2023/06/25 10:43:55;;;;;;;5.72;4.65;;;;;;;-143.21;63.86;70769.59;5112589;28;20311;-80
2023/06/25 10:46:30;;;;;;;6.18;4.80;;;;;;;-143.21;62.61;70769.59;5112594;28;20279;-81
2023/06/25 10:48:59;;;;;;;6.97;5.10;;;;;;;-143.21;62.65;70767.63;5112607;28;20188;-81
2023/06/25 10:51:26;;;;;;;12.75;4.90;;;;;;;-143.21;63.93;70757.69;5112306;28;20211;-81
2023/06/25 10:53:54;;;;;;;8.73;5.00;;;;;;;-143.21;63.99;70749.78;5112587;28;20191;-80
2023/06/25 10:56:22;;;;;;;7.90;5.30;;;;;;;-143.21;63.20;70741.84;5112597;28;20193;-80
2023/06/25 10:58:54;;;;;;;5.22;4.68;;;;;;;-143.21;62.13;70751.75;5112239;28;20191;-81
2023/06/25 11:01:21;;;;;;;8.50;5.25;;;;;;;-143.21;62.67;70757.69;5111765;28;20199;-81
2023/06/25 11:03:49;;;;;;;6.90;4.88;;;;;;;-143.21;63.70;70727.97;5112200;28;20770;-81
2023/06/25 11:06:16;;;;;;;7.32;5.15;;;;;;;-143.21;62.24;70710.13;5112501;28;20204;-81
2023/06/25 11:08:43;;;;;;;7.22;4.40;;;;;;;-143.21;61.30;70686.34;5092009;28;20197;-82